Seattle, Washington
Current Conditions -  °F | °C
As of 11:53 AM on Monday 26 Jan 2015 (Local Time) from KBFI Reporting Station
Clear Clear  
Wind Chill: 60°   Ceiling: Unl
Heat Index: 60°   Visibility: 10mi
Dew Point: 46°   Wind: 7mph
Humidity: 60%   Direction: 150°SSE
Pressure: 29.95"   Gusts: NA
Location:  47.6°N, 122.32°W
Report Text: KBFI 261953Z 15006KT 10SM CLR 16/08 A2995 RMK AO2 SLP142 T01560078
Loading
Personal Weather Stations






























Interactive Weather Map New forecast layout! Learn more

10-Day Weather Forecast

Advertisements
Track Severe Weather on mobile